createdAt,value
2018-05-19T00:00:02.092Z,1015.97
2018-05-19T00:00:28.286Z,1015.95
2018-05-19T00:00:54.457Z,1015.95
2018-05-19T00:01:20.646Z,1015.92
2018-05-19T00:01:46.792Z,1015.94
2018-05-19T00:02:12.948Z,1015.95
2018-05-19T00:02:39.143Z,1015.92
2018-05-19T00:03:05.286Z,1015.93
2018-05-19T00:03:31.445Z,1015.93
2018-05-19T00:03:57.661Z,1015.94
2018-05-19T00:04:23.797Z,1015.92
2018-05-19T00:04:49.922Z,1015.95
2018-05-19T00:05:16.102Z,1015.95
2018-05-19T00:05:42.342Z,1015.94
2018-05-19T00:06:08.399Z,1015.92
2018-05-19T00:06:34.553Z,1015.95
2018-05-19T00:07:00.805Z,1015.92
2018-05-19T00:07:26.852Z,1015.94
2018-05-19T00:07:53.122Z,1015.98
2018-05-19T00:08:19.221Z,1015.94
2018-05-19T00:08:45.394Z,1015.91
2018-05-19T00:09:11.548Z,1015.92
2018-05-19T00:09:37.718Z,1015.93
2018-05-19T00:10:03.900Z,1015.92
2018-05-19T00:10:30.094Z,1015.92
2018-05-19T00:10:56.252Z,1015.89
2018-05-19T00:11:22.395Z,1015.91
2018-05-19T00:11:48.561Z,1015.93
2018-05-19T00:12:14.712Z,1015.94
2018-05-19T00:12:40.879Z,1015.92
2018-05-19T00:13:07.051Z,1015.93
2018-05-19T00:13:33.214Z,1015.91
2018-05-19T00:13:59.397Z,1015.91
2018-05-19T00:14:25.627Z,1015.91
2018-05-19T00:14:51.747Z,1015.93
2018-05-19T00:15:17.845Z,1015.94
2018-05-19T00:15:43.997Z,1015.93
2018-05-19T00:16:10.158Z,1015.91
2018-05-19T00:16:36.324Z,1015.91
2018-05-19T00:17:02.480Z,1015.93
2018-05-19T00:17:28.622Z,1015.91
2018-05-19T00:17:54.813Z,1015.93
2018-05-19T00:18:21.043Z,1015.92
2018-05-19T00:18:47.208Z,1015.86
2018-05-19T00:19:13.362Z,1015.94
2018-05-19T00:19:39.535Z,1015.91
2018-05-19T00:20:05.753Z,1015.9
2018-05-19T00:20:31.918Z,1015.87
2018-05-19T00:20:58.050Z,1015.9
2018-05-19T00:21:24.214Z,1015.9
2018-05-19T00:21:50.391Z,1015.88
2018-05-19T00:22:16.564Z,1015.88
2018-05-19T00:22:42.720Z,1015.91
2018-05-19T00:23:08.873Z,1015.95
2018-05-19T00:23:35.012Z,1015.89
2018-05-19T00:24:01.170Z,1015.96
2018-05-19T00:24:27.352Z,1015.93
2018-05-19T00:24:53.493Z,1015.92
2018-05-19T00:25:19.648Z,1015.93
2018-05-19T00:25:45.819Z,1015.9
2018-05-19T00:26:12.001Z,1015.93
2018-05-19T00:26:38.167Z,1015.93
2018-05-19T00:27:04.320Z,1015.94
2018-05-19T00:27:30.523Z,1015.92
2018-05-19T00:27:56.669Z,1015.9
2018-05-19T00:28:22.857Z,1015.91
2018-05-19T00:28:49.005Z,1015.91
2018-05-19T00:29:15.194Z,1015.91
2018-05-19T00:29:41.387Z,1015.89
2018-05-19T00:30:07.584Z,1015.91
2018-05-19T00:30:33.783Z,1015.91
2018-05-19T00:30:59.928Z,1015.88
2018-05-19T00:31:26.087Z,1015.86
2018-05-19T00:31:52.231Z,1015.86
2018-05-19T00:32:18.381Z,1015.86
2018-05-19T00:32:44.527Z,1015.86
2018-05-19T00:33:10.691Z,1015.89
2018-05-19T00:33:36.850Z,1015.9
2018-05-19T00:34:02.988Z,1015.86
2018-05-19T00:34:29.144Z,1015.87
2018-05-19T00:34:55.312Z,1015.87
2018-05-19T00:35:21.545Z,1015.87
2018-05-19T00:35:47.715Z,1015.88
2018-05-19T00:36:13.854Z,1015.89
2018-05-19T00:36:40.062Z,1015.88
2018-05-19T00:37:06.209Z,1015.88
2018-05-19T00:37:32.345Z,1015.87
2018-05-19T00:37:58.490Z,1015.87
2018-05-19T00:38:24.629Z,1015.89
2018-05-19T00:38:50.773Z,1015.87
2018-05-19T00:39:16.950Z,1015.9
2018-05-19T00:39:43.094Z,1015.86
2018-05-19T00:40:09.236Z,1015.89
2018-05-19T00:40:35.423Z,1015.88
2018-05-19T00:41:01.630Z,1015.87
2018-05-19T00:41:27.783Z,1015.86
2018-05-19T00:41:53.938Z,1015.89
2018-05-19T00:42:20.074Z,1015.89
2018-05-19T00:42:46.232Z,1015.87
2018-05-19T00:43:12.392Z,1015.89
2018-05-19T00:43:38.595Z,1015.9
2018-05-19T00:44:04.707Z,1015.91
2018-05-19T00:44:30.868Z,1015.89
2018-05-19T00:44:57.028Z,1015.91
2018-05-19T00:45:23.213Z,1015.9
2018-05-19T00:45:49.344Z,1015.89
2018-05-19T00:46:15.513Z,1015.9
2018-05-19T00:46:41.706Z,1015.91
2018-05-19T00:47:07.862Z,1015.91
2018-05-19T00:47:34.027Z,1015.88
2018-05-19T00:48:00.176Z,1015.88
2018-05-19T00:48:26.333Z,1015.91
2018-05-19T00:48:52.464Z,1015.9
2018-05-19T00:49:18.611Z,1015.87
2018-05-19T00:49:44.771Z,1015.89
2018-05-19T00:50:10.939Z,1015.86
2018-05-19T00:50:37.076Z,1015.89
2018-05-19T00:51:03.212Z,1015.88
2018-05-19T00:51:29.366Z,1015.91
2018-05-19T00:51:55.502Z,1015.86
2018-05-19T00:52:21.640Z,1015.86
2018-05-19T00:52:47.780Z,1015.87
2018-05-19T00:53:13.915Z,1015.88
2018-05-19T00:53:40.061Z,1015.87
2018-05-19T00:54:06.221Z,1015.89
2018-05-19T00:54:32.375Z,1015.92
2018-05-19T00:54:58.521Z,1015.87
2018-05-19T00:55:24.703Z,1015.91
2018-05-19T00:55:50.882Z,1015.86
2018-05-19T00:56:16.974Z,1015.84
2018-05-19T00:56:43.112Z,1015.9
2018-05-19T00:57:09.267Z,1015.83
2018-05-19T00:57:35.409Z,1015.88
2018-05-19T00:58:01.549Z,1015.87
2018-05-19T00:58:27.687Z,1015.89
2018-05-19T00:58:53.825Z,1015.84
2018-05-19T00:59:19.959Z,1015.83
2018-05-19T00:59:46.094Z,1015.87
2018-05-19T01:00:12.233Z,1015.87
2018-05-19T01:00:38.399Z,1015.86
2018-05-19T01:01:04.539Z,1015.88
2018-05-19T01:01:30.675Z,1015.83
2018-05-19T01:01:56.812Z,1015.86
2018-05-19T01:02:22.951Z,1015.89
2018-05-19T01:02:49.086Z,1015.89
2018-05-19T01:03:15.219Z,1015.89
2018-05-19T01:03:41.359Z,1015.88
2018-05-19T01:04:07.496Z,1015.91
2018-05-19T01:04:33.634Z,1015.9
2018-05-19T01:04:59.774Z,1015.92
2018-05-19T01:05:25.930Z,1015.87
2018-05-19T01:05:52.103Z,1015.9
2018-05-19T01:06:18.260Z,1015.89
2018-05-19T01:06:44.395Z,1015.92
2018-05-19T01:07:10.533Z,1015.86
2018-05-19T01:07:36.718Z,1015.87
2018-05-19T01:08:02.876Z,1015.85
2018-05-19T01:08:29.023Z,1015.83
2018-05-19T01:08:55.170Z,1015.87
2018-05-19T01:09:21.742Z,1015.87
2018-05-19T01:09:47.876Z,1015.86
2018-05-19T01:10:14.016Z,1015.85
2018-05-19T01:10:40.155Z,1015.88
2018-05-19T01:11:06.283Z,1015.87
2018-05-19T01:11:32.453Z,1015.88
2018-05-19T01:11:58.631Z,1015.88
2018-05-19T01:12:24.785Z,1015.87
2018-05-19T01:12:50.949Z,1015.86
2018-05-19T01:13:17.143Z,1015.86
2018-05-19T01:13:43.283Z,1015.86
2018-05-19T01:14:09.422Z,1015.88
2018-05-19T01:14:35.574Z,1015.89
2018-05-19T01:15:01.733Z,1015.84
2018-05-19T01:15:27.866Z,1015.85
2018-05-19T01:15:54.002Z,1015.84
2018-05-19T01:16:20.143Z,1015.83
2018-05-19T01:16:46.278Z,1015.83
2018-05-19T01:17:12.435Z,1015.8
2018-05-19T01:17:38.574Z,1015.83
2018-05-19T01:18:04.719Z,1015.8
2018-05-19T01:18:30.861Z,1015.8
2018-05-19T01:18:57.022Z,1015.82
2018-05-19T01:19:23.157Z,1015.84
2018-05-19T01:19:49.299Z,1015.83
2018-05-19T01:20:15.436Z,1015.84
2018-05-19T01:20:41.576Z,1015.83
2018-05-19T01:21:07.736Z,1015.82
2018-05-19T01:21:33.876Z,1015.81
2018-05-19T01:22:00.044Z,1015.82
2018-05-19T01:22:26.176Z,1015.85
2018-05-19T01:22:52.340Z,1015.79
2018-05-19T01:23:18.484Z,1015.82
2018-05-19T01:23:44.613Z,1015.83
2018-05-19T01:24:10.748Z,1015.77
2018-05-19T01:24:36.915Z,1015.8
2018-05-19T01:25:03.049Z,1015.81
2018-05-19T01:25:29.206Z,1015.79
2018-05-19T01:25:55.341Z,1015.79
2018-05-19T01:26:21.482Z,1015.77
2018-05-19T01:26:47.646Z,1015.82
2018-05-19T01:27:13.760Z,1015.83
2018-05-19T01:27:39.906Z,1015.81
2018-05-19T01:28:06.046Z,1015.81
2018-05-19T01:28:32.208Z,1015.81
2018-05-19T01:28:58.345Z,1015.82
2018-05-19T01:29:24.482Z,1015.8
2018-05-19T01:29:50.700Z,1015.81
2018-05-19T01:30:16.947Z,1015.84
2018-05-19T01:30:43.019Z,1015.82
2018-05-19T01:31:09.163Z,1015.84
2018-05-19T01:31:35.319Z,1015.82
2018-05-19T01:32:01.455Z,1015.84
2018-05-19T01:32:27.591Z,1015.82
2018-05-19T01:32:53.746Z,1015.81
2018-05-19T01:33:19.918Z,1015.85
2018-05-19T01:33:46.056Z,1015.85
2018-05-19T01:34:12.220Z,1015.81
2018-05-19T01:34:38.361Z,1015.84
2018-05-19T01:35:04.525Z,1015.84
2018-05-19T01:35:30.661Z,1015.86
2018-05-19T01:35:56.798Z,1015.85
2018-05-19T01:36:22.935Z,1015.83
2018-05-19T01:36:49.067Z,1015.82
2018-05-19T01:37:15.228Z,1015.86
2018-05-19T01:37:41.366Z,1015.87
2018-05-19T01:38:07.500Z,1015.87
2018-05-19T01:38:33.642Z,1015.81
2018-05-19T01:38:59.773Z,1015.85
2018-05-19T01:39:25.915Z,1015.82
2018-05-19T01:39:52.055Z,1015.83
2018-05-19T01:40:18.195Z,1015.83
2018-05-19T01:40:44.325Z,1015.81
2018-05-19T01:41:10.475Z,1015.82
2018-05-19T01:41:36.655Z,1015.8
2018-05-19T01:42:02.822Z,1015.81
2018-05-19T01:42:28.965Z,1015.79
2018-05-19T01:42:55.106Z,1015.83
2018-05-19T01:43:21.243Z,1015.81
2018-05-19T01:43:47.379Z,1015.78
2018-05-19T01:44:13.523Z,1015.79
2018-05-19T01:44:39.656Z,1015.74
2018-05-19T01:45:05.795Z,1015.78
2018-05-19T01:45:31.947Z,1015.75
2018-05-19T01:45:58.122Z,1015.77
2018-05-19T01:46:24.257Z,1015.75
2018-05-19T01:46:50.397Z,1015.76
2018-05-19T01:47:16.535Z,1015.76
2018-05-19T01:47:42.681Z,1015.76
2018-05-19T01:48:08.815Z,1015.73
2018-05-19T01:48:34.949Z,1015.73
2018-05-19T01:49:01.085Z,1015.76
2018-05-19T01:49:27.231Z,1015.75
2018-05-19T01:49:53.387Z,1015.76
2018-05-19T01:50:19.535Z,1015.76
2018-05-19T01:50:45.694Z,1015.78
2018-05-19T01:51:11.833Z,1015.75
2018-05-19T01:51:37.991Z,1015.77
2018-05-19T01:52:04.155Z,1015.78
2018-05-19T01:52:30.281Z,1015.78
2018-05-19T01:52:56.415Z,1015.79
2018-05-19T01:53:22.556Z,1015.77
2018-05-19T01:53:48.694Z,1015.77
2018-05-19T01:54:14.831Z,1015.77
2018-05-19T01:54:40.972Z,1015.77
2018-05-19T01:55:07.108Z,1015.8
2018-05-19T01:55:33.246Z,1015.8
2018-05-19T01:55:59.383Z,1015.79
2018-05-19T01:56:25.517Z,1015.82
2018-05-19T01:56:51.656Z,1015.79
2018-05-19T01:57:17.788Z,1015.78
2018-05-19T01:57:43.928Z,1015.79
2018-05-19T01:58:10.061Z,1015.78
2018-05-19T01:58:36.196Z,1015.77
2018-05-19T01:59:02.337Z,1015.78
2018-05-19T01:59:28.473Z,1015.76
2018-05-19T01:59:54.628Z,1015.77
2018-05-19T02:00:20.769Z,1015.79
2018-05-19T02:00:46.907Z,1015.81
2018-05-19T02:01:13.038Z,1015.77
2018-05-19T02:01:39.180Z,1015.77
2018-05-19T02:02:05.316Z,1015.8
2018-05-19T02:02:31.444Z,1015.77
2018-05-19T02:02:57.615Z,1015.79
2018-05-19T02:03:23.745Z,1015.76
2018-05-19T02:03:49.883Z,1015.77
2018-05-19T02:04:16.046Z,1015.76
2018-05-19T02:04:42.191Z,1015.78
2018-05-19T02:05:08.328Z,1015.74
2018-05-19T02:05:34.462Z,1015.75
2018-05-19T02:06:00.595Z,1015.74
2018-05-19T02:06:26.741Z,1015.77
2018-05-19T02:06:52.879Z,1015.77
2018-05-19T02:07:19.015Z,1015.77
2018-05-19T02:07:45.168Z,1015.76
2018-05-19T02:08:11.308Z,1015.78
2018-05-19T02:08:37.454Z,1015.75
2018-05-19T02:09:03.604Z,1015.77
2018-05-19T02:09:29.771Z,1015.78
2018-05-19T02:09:55.908Z,1015.75
2018-05-19T02:10:22.049Z,1015.77
2018-05-19T02:10:48.189Z,1015.78
2018-05-19T02:11:14.326Z,1015.77
2018-05-19T02:11:40.465Z,1015.75
2018-05-19T02:12:06.609Z,1015.76
2018-05-19T02:12:32.760Z,1015.76
2018-05-19T02:12:58.907Z,1015.81
2018-05-19T02:13:25.041Z,1015.79
2018-05-19T02:13:51.173Z,1015.78
2018-05-19T02:14:17.314Z,1015.78
2018-05-19T02:14:43.450Z,1015.77
2018-05-19T02:15:09.593Z,1015.78
2018-05-19T02:15:35.731Z,1015.75
2018-05-19T02:16:01.864Z,1015.76
2018-05-19T02:16:28.008Z,1015.75
2018-05-19T02:16:54.145Z,1015.75
2018-05-19T02:17:20.284Z,1015.76
2018-05-19T02:17:46.420Z,1015.8
2018-05-19T02:18:12.552Z,1015.78
2018-05-19T02:18:38.692Z,1015.76
2018-05-19T02:19:04.859Z,1015.76
2018-05-19T02:19:31.015Z,1015.76
2018-05-19T02:19:57.160Z,1015.73
2018-05-19T02:20:23.321Z,1015.73
2018-05-19T02:20:49.495Z,1015.74
2018-05-19T02:21:15.630Z,1015.76
2018-05-19T02:21:41.789Z,1015.74
2018-05-19T02:22:07.924Z,1015.74
2018-05-19T02:22:34.060Z,1015.75
2018-05-19T02:23:00.198Z,1015.75
2018-05-19T02:23:26.328Z,1015.76
2018-05-19T02:23:52.475Z,1015.75
2018-05-19T02:24:18.604Z,1015.78
2018-05-19T02:24:44.738Z,1015.78
2018-05-19T02:25:10.880Z,1015.76
2018-05-19T02:25:37.034Z,1015.74
2018-05-19T02:26:03.167Z,1015.78
2018-05-19T02:26:29.304Z,1015.75
2018-05-19T02:26:55.436Z,1015.82
2018-05-19T02:27:21.576Z,1015.77
2018-05-19T02:27:47.711Z,1015.77
2018-05-19T02:28:13.851Z,1015.78
2018-05-19T02:28:39.989Z,1015.78
2018-05-19T02:29:06.156Z,1015.78
2018-05-19T02:29:32.349Z,1015.76
2018-05-19T02:29:58.507Z,1015.76
2018-05-19T02:30:24.644Z,1015.77
2018-05-19T02:30:50.809Z,1015.78
2018-05-19T02:31:16.966Z,1015.77
2018-05-19T02:31:43.120Z,1015.71
2018-05-19T02:32:09.263Z,1015.75
2018-05-19T02:32:35.396Z,1015.77
2018-05-19T02:33:01.536Z,1015.78
2018-05-19T02:33:27.698Z,1015.75
2018-05-19T02:33:53.831Z,1015.76
2018-05-19T02:34:19.991Z,1015.73
2018-05-19T02:34:46.161Z,1015.75
2018-05-19T02:35:12.300Z,1015.76
2018-05-19T02:35:38.446Z,1015.71
2018-05-19T02:36:04.633Z,1015.77
2018-05-19T02:36:30.779Z,1015.75
2018-05-19T02:36:56.943Z,1015.73
2018-05-19T02:37:23.121Z,1015.74
2018-05-19T02:37:49.262Z,1015.77
2018-05-19T02:38:15.403Z,1015.72
2018-05-19T02:38:41.563Z,1015.73
2018-05-19T02:39:07.702Z,1015.73
2018-05-19T02:39:33.836Z,1015.72
2018-05-19T02:40:00.001Z,1015.74
2018-05-19T02:40:26.144Z,1015.74
2018-05-19T02:40:52.299Z,1015.75
2018-05-19T02:41:18.431Z,1015.76
2018-05-19T02:41:44.569Z,1015.73
2018-05-19T02:42:10.752Z,1015.75
2018-05-19T02:42:36.932Z,1015.74
2018-05-19T02:43:03.088Z,1015.72
2018-05-19T02:43:29.250Z,1015.71
2018-05-19T02:43:55.407Z,1015.74
2018-05-19T02:44:21.556Z,1015.76
2018-05-19T02:44:47.700Z,1015.73
2018-05-19T02:45:13.841Z,1015.72
2018-05-19T02:45:40.027Z,1015.75
2018-05-19T02:46:06.162Z,1015.72
2018-05-19T02:46:32.326Z,1015.69
2018-05-19T02:46:58.462Z,1015.71
2018-05-19T02:47:24.613Z,1015.72
2018-05-19T02:47:50.748Z,1015.71
2018-05-19T02:48:16.942Z,1015.71
2018-05-19T02:48:43.097Z,1015.7
2018-05-19T02:49:09.256Z,1015.66
2018-05-19T02:49:35.420Z,1015.72
2018-05-19T02:50:01.570Z,1015.7
2018-05-19T02:50:27.747Z,1015.68
2018-05-19T02:50:53.936Z,1015.71
2018-05-19T02:51:20.102Z,1015.71
2018-05-19T02:51:46.238Z,1015.69
2018-05-19T02:52:12.376Z,1015.71
2018-05-19T02:52:38.533Z,1015.72
2018-05-19T02:53:04.700Z,1015.69
2018-05-19T02:53:30.835Z,1015.7
2018-05-19T02:53:57.021Z,1015.71
2018-05-19T02:54:23.164Z,1015.72
2018-05-19T02:54:49.351Z,1015.71
2018-05-19T02:55:15.509Z,1015.72
2018-05-19T02:55:41.657Z,1015.75
2018-05-19T02:56:07.816Z,1015.74
2018-05-19T02:56:33.975Z,1015.75
2018-05-19T02:57:00.142Z,1015.75
2018-05-19T02:57:26.352Z,1015.72
2018-05-19T02:57:52.487Z,1015.7
2018-05-19T02:58:18.626Z,1015.74
2018-05-19T02:58:44.787Z,1015.8
2018-05-19T02:59:10.921Z,1015.76
2018-05-19T02:59:37.103Z,1015.76
2018-05-19T03:00:03.237Z,1015.74
2018-05-19T03:00:29.404Z,1015.75
2018-05-19T03:00:55.565Z,1015.75
2018-05-19T03:01:21.706Z,1015.77
2018-05-19T03:01:47.891Z,1015.78
2018-05-19T03:02:14.175Z,1015.77
2018-05-19T03:02:40.380Z,1015.8
2018-05-19T03:03:06.569Z,1015.77
2018-05-19T03:03:32.808Z,1015.79
2018-05-19T03:03:59.068Z,1015.77
2018-05-19T03:04:25.287Z,1015.82
2018-05-19T03:04:51.543Z,1015.78
2018-05-19T03:05:17.829Z,1015.79
2018-05-19T03:05:44.164Z,1015.81
2018-05-19T03:06:10.408Z,1015.81
2018-05-19T03:06:36.749Z,1015.79
2018-05-19T03:07:02.941Z,1015.79
2018-05-19T03:07:29.148Z,1015.75
2018-05-19T03:07:55.526Z,1015.77
2018-05-19T03:08:21.685Z,1015.79
2018-05-19T03:08:47.812Z,1015.77
2018-05-19T03:09:13.980Z,1015.78
2018-05-19T03:09:40.131Z,1015.79
2018-05-19T03:10:06.325Z,1015.73
2018-05-19T03:10:32.460Z,1015.73
2018-05-19T03:10:58.657Z,1015.75
2018-05-19T03:11:24.803Z,1015.74
2018-05-19T03:11:50.960Z,1015.72
2018-05-19T03:12:17.128Z,1015.71
2018-05-19T03:12:43.258Z,1015.72
2018-05-19T03:13:09.444Z,1015.71
2018-05-19T03:13:35.609Z,1015.73
2018-05-19T03:14:01.771Z,1015.68
2018-05-19T03:14:27.912Z,1015.73
2018-05-19T03:14:54.044Z,1015.69
2018-05-19T03:15:20.203Z,1015.74
2018-05-19T03:15:46.343Z,1015.73
2018-05-19T03:16:12.477Z,1015.73
2018-05-19T03:16:38.657Z,1015.7
2018-05-19T03:17:04.891Z,1015.71
2018-05-19T03:17:30.965Z,1015.71
2018-05-19T03:17:57.105Z,1015.7
2018-05-19T03:18:23.264Z,1015.71
2018-05-19T03:18:49.401Z,1015.69
2018-05-19T03:19:15.536Z,1015.69
2018-05-19T03:19:41.704Z,1015.69
2018-05-19T03:20:07.837Z,1015.72
2018-05-19T03:20:33.998Z,1015.7
2018-05-19T03:21:00.135Z,1015.69
2018-05-19T03:21:26.279Z,1015.68
2018-05-19T03:21:52.417Z,1015.68
2018-05-19T03:22:18.552Z,1015.69
2018-05-19T03:22:44.693Z,1015.71
2018-05-19T03:23:10.850Z,1015.71
2018-05-19T03:23:36.991Z,1015.69
2018-05-19T03:24:03.129Z,1015.65
2018-05-19T03:24:29.261Z,1015.7
2018-05-19T03:24:55.451Z,1015.65
2018-05-19T03:25:21.618Z,1015.65
2018-05-19T03:25:47.775Z,1015.65
2018-05-19T03:26:13.920Z,1015.71
2018-05-19T03:26:40.056Z,1015.68
2018-05-19T03:27:06.191Z,1015.66
2018-05-19T03:27:32.358Z,1015.69
2018-05-19T03:27:58.497Z,1015.64
2018-05-19T03:28:24.636Z,1015.63
2018-05-19T03:28:50.792Z,1015.69
2018-05-19T03:29:16.953Z,1015.71
2018-05-19T03:29:43.093Z,1015.66
2018-05-19T03:30:09.231Z,1015.7
2018-05-19T03:30:35.445Z,1015.69
2018-05-19T03:31:01.671Z,1015.71
2018-05-19T03:31:27.829Z,1015.71
2018-05-19T03:31:54.070Z,1015.7
2018-05-19T03:32:20.213Z,1015.73
2018-05-19T03:32:46.419Z,1015.68
2018-05-19T03:33:12.602Z,1015.69
2018-05-19T03:33:38.736Z,1015.7
2018-05-19T03:34:04.906Z,1015.71
2018-05-19T03:34:31.064Z,1015.73
2018-05-19T03:34:57.210Z,1015.69
2018-05-19T03:35:23.345Z,1015.71
2018-05-19T03:35:49.489Z,1015.67
2018-05-19T03:36:15.695Z,1015.7
2018-05-19T03:36:41.857Z,1015.68
2018-05-19T03:37:07.993Z,1015.71
2018-05-19T03:37:34.141Z,1015.7
2018-05-19T03:38:00.367Z,1015.69
2018-05-19T03:38:26.464Z,1015.7
2018-05-19T03:38:52.620Z,1015.72
2018-05-19T03:39:18.784Z,1015.71
2018-05-19T03:39:44.932Z,1015.75
2018-05-19T03:40:11.069Z,1015.75
2018-05-19T03:40:37.208Z,1015.8
2018-05-19T03:41:03.355Z,1015.77
2018-05-19T03:41:29.489Z,1015.73
2018-05-19T03:41:55.622Z,1015.74
2018-05-19T03:42:21.762Z,1015.76
2018-05-19T03:42:47.897Z,1015.75
2018-05-19T03:43:14.093Z,1015.77
2018-05-19T03:43:40.227Z,1015.75
2018-05-19T03:44:06.402Z,1015.77
2018-05-19T03:44:32.575Z,1015.76
2018-05-19T03:44:58.711Z,1015.81
2018-05-19T03:45:24.847Z,1015.77
2018-05-19T03:45:50.983Z,1015.79
2018-05-19T03:46:17.208Z,1015.79
2018-05-19T03:46:43.303Z,1015.76
2018-05-19T03:47:09.439Z,1015.78
2018-05-19T03:47:35.580Z,1015.76
2018-05-19T03:48:01.717Z,1015.78
2018-05-19T03:48:27.848Z,1015.77
2018-05-19T03:48:54.014Z,1015.82
2018-05-19T03:49:20.148Z,1015.84
2018-05-19T03:49:46.289Z,1015.82
2018-05-19T03:50:12.431Z,1015.82
2018-05-19T03:50:38.588Z,1015.78
2018-05-19T03:51:04.723Z,1015.84
2018-05-19T03:51:30.858Z,1015.81
2018-05-19T03:51:57.000Z,1015.84
2018-05-19T03:52:23.138Z,1015.86
2018-05-19T03:52:49.282Z,1015.8
2018-05-19T03:53:15.409Z,1015.86
2018-05-19T03:53:41.547Z,1015.84
2018-05-19T03:54:07.692Z,1015.84
2018-05-19T03:54:33.830Z,1015.85
2018-05-19T03:54:59.964Z,1015.83
2018-05-19T03:55:26.108Z,1015.86
2018-05-19T03:55:52.267Z,1015.84
2018-05-19T03:56:18.408Z,1015.85
2018-05-19T03:56:44.550Z,1015.84
2018-05-19T03:57:10.688Z,1015.86
2018-05-19T03:57:36.825Z,1015.86
2018-05-19T03:58:02.962Z,1015.83
2018-05-19T03:58:29.129Z,1015.84
2018-05-19T03:58:55.260Z,1015.88
2018-05-19T03:59:21.429Z,1015.87
2018-05-19T03:59:47.584Z,1015.83
2018-05-19T04:00:13.720Z,1015.86
2018-05-19T04:00:39.869Z,1015.85
2018-05-19T04:01:06.007Z,1015.89
2018-05-19T04:01:32.166Z,1015.92
2018-05-19T04:01:58.307Z,1015.91
2018-05-19T04:02:24.468Z,1015.93
2018-05-19T04:02:50.607Z,1015.9
2018-05-19T04:03:16.740Z,1015.95
2018-05-19T04:03:42.879Z,1015.98
2018-05-19T04:04:09.009Z,1015.97
2018-05-19T04:04:35.167Z,1015.92
2018-05-19T04:05:01.307Z,1015.96
2018-05-19T04:05:27.467Z,1015.99
2018-05-19T04:05:53.608Z,1015.98
2018-05-19T04:06:19.740Z,1016.02
2018-05-19T04:06:45.874Z,1016
2018-05-19T04:07:12.015Z,1016
2018-05-19T04:07:38.170Z,1016.02
2018-05-19T04:08:04.342Z,1016.03
2018-05-19T04:08:30.486Z,1016.05
2018-05-19T04:08:56.623Z,1016.07
2018-05-19T04:09:22.763Z,1016.06
2018-05-19T04:09:48.900Z,1016.05
2018-05-19T04:10:15.037Z,1016.06
2018-05-19T04:10:41.175Z,1016.03
2018-05-19T04:11:07.315Z,1016.09
2018-05-19T04:11:33.485Z,1016.08
2018-05-19T04:11:59.614Z,1016.1
2018-05-19T04:12:25.750Z,1016.09
2018-05-19T04:12:51.886Z,1016.1
2018-05-19T04:13:18.035Z,1016.1
2018-05-19T04:13:44.175Z,1016.11
2018-05-19T04:14:10.320Z,1016.11
2018-05-19T04:14:36.469Z,1016.15
2018-05-19T04:15:02.626Z,1016.11
2018-05-19T04:15:28.784Z,1016.09
2018-05-19T04:15:54.941Z,1016.09
2018-05-19T04:16:21.083Z,1016.12
2018-05-19T04:16:47.246Z,1016.1
2018-05-19T04:17:13.405Z,1016.13
2018-05-19T04:17:39.542Z,1016.12
2018-05-19T04:18:05.684Z,1016.15
2018-05-19T04:18:31.821Z,1016.12
2018-05-19T04:18:57.970Z,1016.14
2018-05-19T04:19:24.142Z,1016.11
2018-05-19T04:19:50.321Z,1016.11
2018-05-19T04:20:16.458Z,1016.13
2018-05-19T04:20:42.593Z,1016.12
2018-05-19T04:21:08.730Z,1016.09
2018-05-19T04:21:34.867Z,1016.12
2018-05-19T04:22:01.064Z,1016.11
2018-05-19T04:22:27.198Z,1016.13
2018-05-19T04:22:53.335Z,1016.12
2018-05-19T04:23:19.479Z,1016.11
2018-05-19T04:23:45.626Z,1016.11
2018-05-19T04:24:11.769Z,1016.1
2018-05-19T04:24:37.907Z,1016.14
2018-05-19T04:25:04.069Z,1016.15
2018-05-19T04:25:30.258Z,1016.15
2018-05-19T04:25:56.418Z,1016.14
2018-05-19T04:26:22.556Z,1016.15
2018-05-19T04:26:48.698Z,1016.11
2018-05-19T04:27:14.846Z,1016.13
2018-05-19T04:27:41.012Z,1016.14
2018-05-19T04:28:07.146Z,1016.12
2018-05-19T04:28:33.285Z,1016.11
2018-05-19T04:28:59.427Z,1016.13
2018-05-19T04:29:25.598Z,1016.14
2018-05-19T04:29:51.738Z,1016.14
2018-05-19T04:30:17.886Z,1016.11
2018-05-19T04:30:44.019Z,1016.15
2018-05-19T04:31:10.186Z,1016.11
2018-05-19T04:31:36.324Z,1016.15
2018-05-19T04:32:02.466Z,1016.11
2018-05-19T04:32:28.634Z,1016.14
2018-05-19T04:32:54.779Z,1016.15
2018-05-19T04:33:20.924Z,1016.11
2018-05-19T04:33:47.060Z,1016.13
2018-05-19T04:34:13.196Z,1016.11
2018-05-19T04:34:39.327Z,1016.12
2018-05-19T04:35:05.470Z,1016.12
2018-05-19T04:35:31.627Z,1016.12
2018-05-19T04:35:57.761Z,1016.14
2018-05-19T04:36:23.931Z,1016.13
2018-05-19T04:36:50.070Z,1016.1
2018-05-19T04:37:16.256Z,1016.14
2018-05-19T04:37:42.389Z,1016.14
2018-05-19T04:38:08.606Z,1016.16
2018-05-19T04:38:34.665Z,1016.15
2018-05-19T04:39:00.799Z,1016.17
2018-05-19T04:39:26.940Z,1016.16
2018-05-19T04:39:53.082Z,1016.18
2018-05-19T04:40:19.220Z,1016.16
2018-05-19T04:40:45.356Z,1016.18
2018-05-19T04:41:11.513Z,1016.17
2018-05-19T04:41:37.653Z,1016.22
2018-05-19T04:42:03.795Z,1016.17
2018-05-19T04:42:29.923Z,1016.19
2018-05-19T04:42:56.092Z,1016.18
2018-05-19T04:43:22.222Z,1016.19
2018-05-19T04:43:48.367Z,1016.2
2018-05-19T04:44:14.504Z,1016.19
2018-05-19T04:44:40.737Z,1016.2
2018-05-19T04:45:06.827Z,1016.2
2018-05-19T04:45:32.992Z,1016.16
2018-05-19T04:45:59.131Z,1016.2
2018-05-19T04:46:25.264Z,1016.21
2018-05-19T04:46:51.405Z,1016.18
2018-05-19T04:47:17.577Z,1016.2
2018-05-19T04:47:43.762Z,1016.21
2018-05-19T04:48:09.905Z,1016.17
2018-05-19T04:48:36.066Z,1016.22
2018-05-19T04:49:02.205Z,1016.2
2018-05-19T04:49:28.364Z,1016.22
2018-05-19T04:49:54.499Z,1016.21
2018-05-19T04:50:20.639Z,1016.22
2018-05-19T04:50:46.773Z,1016.23
2018-05-19T04:51:12.914Z,1016.2
2018-05-19T04:51:39.056Z,1016.21
2018-05-19T04:52:05.200Z,1016.21
2018-05-19T04:52:31.325Z,1016.25
2018-05-19T04:52:57.471Z,1016.23
2018-05-19T04:53:23.599Z,1016.24
2018-05-19T04:53:49.768Z,1016.23
2018-05-19T04:54:15.912Z,1016.24
2018-05-19T04:54:42.053Z,1016.27
2018-05-19T04:55:08.183Z,1016.25
2018-05-19T04:55:34.333Z,1016.25
2018-05-19T04:56:00.466Z,1016.24
2018-05-19T04:56:26.602Z,1016.27
2018-05-19T04:56:52.848Z,1016.24
2018-05-19T04:57:18.912Z,1016.24
2018-05-19T04:57:45.051Z,1016.29
2018-05-19T04:58:11.188Z,1016.26
2018-05-19T04:58:37.324Z,1016.26
2018-05-19T04:59:03.468Z,1016.27
2018-05-19T04:59:29.622Z,1016.26
2018-05-19T04:59:55.766Z,1016.29
2018-05-19T05:00:21.906Z,1016.32
2018-05-19T05:00:48.045Z,1016.31
2018-05-19T05:01:14.202Z,1016.31
2018-05-19T05:01:40.343Z,1016.32
2018-05-19T05:02:06.519Z,1016.31
2018-05-19T05:02:32.670Z,1016.29
2018-05-19T05:02:58.809Z,1016.33
2018-05-19T05:03:24.948Z,1016.29
2018-05-19T05:03:51.234Z,1016.28
2018-05-19T05:04:17.259Z,1016.31
2018-05-19T05:04:43.432Z,1016.31
2018-05-19T05:05:09.555Z,1016.31
2018-05-19T05:05:35.689Z,1016.3
2018-05-19T05:06:01.829Z,1016.32
2018-05-19T05:06:27.990Z,1016.31
2018-05-19T05:06:54.122Z,1016.33
2018-05-19T05:07:20.264Z,1016.33
2018-05-19T05:07:46.400Z,1016.36
2018-05-19T05:08:12.540Z,1016.36
2018-05-19T05:08:38.680Z,1016.38
2018-05-19T05:09:04.815Z,1016.38
2018-05-19T05:09:30.959Z,1016.36
2018-05-19T05:09:57.092Z,1016.4
2018-05-19T05:10:23.276Z,1016.38
2018-05-19T05:10:49.398Z,1016.38
2018-05-19T05:11:15.540Z,1016.4
2018-05-19T05:11:41.684Z,1016.38
2018-05-19T05:12:07.831Z,1016.43
2018-05-19T05:12:33.956Z,1016.41
2018-05-19T05:13:00.092Z,1016.4
2018-05-19T05:13:26.233Z,1016.38
2018-05-19T05:13:52.434Z,1016.39
2018-05-19T05:14:18.590Z,1016.36
2018-05-19T05:14:44.756Z,1016.36
2018-05-19T05:15:10.893Z,1016.34
2018-05-19T05:15:37.031Z,1016.3
2018-05-19T05:16:03.168Z,1016.33
2018-05-19T05:16:29.306Z,1016.33
2018-05-19T05:16:55.474Z,1016.31